createdAt,value
2017-06-22T00:00:08.872Z,0
2017-06-22T00:00:57.986Z,0
2017-06-22T00:01:46.992Z,0
2017-06-22T00:02:35.057Z,0
2017-06-22T00:03:30.074Z,0
2017-06-22T00:04:24.125Z,0
2017-06-22T00:05:18.143Z,0
2017-06-22T00:06:13.493Z,0
2017-06-22T00:07:07.268Z,0
2017-06-22T00:08:01.527Z,0
2017-06-22T00:08:56.241Z,0
2017-06-22T00:09:50.399Z,0
2017-06-22T00:10:45.045Z,0
2017-06-22T00:11:39.058Z,0
2017-06-22T00:12:39.279Z,0
2017-06-22T00:13:34.650Z,0
2017-06-22T00:14:23.134Z,0
2017-06-22T00:15:23.164Z,0
2017-06-22T00:16:18.227Z,0
2017-06-22T00:17:12.379Z,0
2017-06-22T00:18:06.786Z,0
2017-06-22T00:19:00.401Z,0
2017-06-22T00:19:54.483Z,0
2017-06-22T00:21:00.418Z,0
2017-06-22T00:21:55.450Z,0
2017-06-22T00:22:50.746Z,0
2017-06-22T00:23:51.967Z,0
2017-06-22T00:24:39.780Z,0
2017-06-22T00:25:27.584Z,0
2017-06-22T00:26:16.718Z,0
2017-06-22T00:27:04.730Z,0
2017-06-22T00:27:53.077Z,0
2017-06-22T00:28:42.353Z,0
2017-06-22T00:29:36.036Z,0
2017-06-22T00:30:35.923Z,0
2017-06-22T00:31:36.445Z,0
2017-06-22T00:32:30.485Z,0
2017-06-22T00:33:25.558Z,0
2017-06-22T00:34:13.225Z,0
2017-06-22T00:35:07.282Z,0
2017-06-22T00:35:56.675Z,0
2017-06-22T00:36:45.404Z,0
2017-06-22T00:37:33.768Z,0
2017-06-22T00:38:21.743Z,0
2017-06-22T00:39:10.806Z,0
2017-06-22T00:40:04.794Z,0
2017-06-22T00:40:52.921Z,0
2017-06-22T00:41:41.075Z,0
2017-06-22T00:42:29.123Z,0
2017-06-22T00:43:18.057Z,0
2017-06-22T00:44:05.684Z,0
2017-06-22T00:44:53.626Z,0
2017-06-22T00:45:42.970Z,0
2017-06-22T00:46:31.240Z,0
2017-06-22T00:47:19.146Z,0
2017-06-22T00:48:08.416Z,0
2017-06-22T00:49:03.400Z,0
2017-06-22T00:49:51.285Z,0
2017-06-22T00:50:39.482Z,0
2017-06-22T00:51:28.530Z,0
2017-06-22T00:52:16.547Z,0
2017-06-22T00:53:04.810Z,0
2017-06-22T00:53:53.652Z,0
2017-06-22T00:54:41.930Z,0
2017-06-22T00:55:30.995Z,0
2017-06-22T00:56:18.863Z,0
2017-06-22T00:57:06.798Z,0
2017-06-22T00:57:56.019Z,0
2017-06-22T00:58:43.938Z,0
2017-06-22T00:59:32.025Z,0
2017-06-22T01:00:21.039Z,0
2017-06-22T01:01:09.068Z,0
2017-06-22T01:01:57.177Z,0
2017-06-22T01:02:46.163Z,0
2017-06-22T01:03:34.232Z,0
2017-06-22T01:04:22.195Z,0
2017-06-22T01:05:11.770Z,0
2017-06-22T01:05:59.283Z,0
2017-06-22T01:06:47.406Z,0
2017-06-22T01:07:35.398Z,0
2017-06-22T01:08:23.513Z,0
2017-06-22T01:09:18.530Z,0
2017-06-22T01:10:06.505Z,0
2017-06-22T01:10:54.772Z,0
2017-06-22T01:11:42.643Z,0
2017-06-22T01:12:31.720Z,0
2017-06-22T01:13:19.926Z,0
2017-06-22T01:14:07.691Z,0
2017-06-22T01:14:57.024Z,0
2017-06-22T01:15:44.889Z,0
2017-06-22T01:16:32.888Z,0
2017-06-22T01:17:21.999Z,0
2017-06-22T01:18:10.280Z,0
2017-06-22T01:18:58.022Z,0
2017-06-22T01:19:47.117Z,0
2017-06-22T01:20:35.181Z,0
2017-06-22T01:21:23.188Z,0
2017-06-22T01:22:12.238Z,0
2017-06-22T01:23:00.296Z,0
2017-06-22T01:23:54.409Z,0
2017-06-22T01:24:42.421Z,0
2017-06-22T01:25:31.469Z,0
2017-06-22T01:26:20.515Z,0
2017-06-22T01:27:09.493Z,0
2017-06-22T01:27:57.540Z,0
2017-06-22T01:28:46.679Z,0
2017-06-22T01:29:34.653Z,0
2017-06-22T01:30:22.625Z,0
2017-06-22T01:31:10.343Z,0
2017-06-22T01:31:59.767Z,0
2017-06-22T01:32:47.841Z,0
2017-06-22T01:33:35.934Z,0
2017-06-22T01:34:23.449Z,0
2017-06-22T01:35:17.790Z,0
2017-06-22T01:36:07.091Z,0
2017-06-22T01:36:55.049Z,0
2017-06-22T01:37:44.127Z,0
2017-06-22T01:38:32.164Z,0
2017-06-22T01:39:20.219Z,0
2017-06-22T01:40:09.723Z,0
2017-06-22T01:40:57.322Z,0
2017-06-22T01:41:45.545Z,0
2017-06-22T01:42:33.592Z,0
2017-06-22T01:43:22.449Z,0
2017-06-22T01:44:10.550Z,0
2017-06-22T01:44:58.573Z,0
2017-06-22T01:45:47.906Z,0
2017-06-22T01:46:35.654Z,0
2017-06-22T01:47:23.829Z,0
2017-06-22T01:48:12.797Z,0
2017-06-22T01:49:01.793Z,0
2017-06-22T01:49:49.849Z,0
2017-06-22T01:50:37.930Z,0
2017-06-22T01:51:25.925Z,0
2017-06-22T01:52:14.022Z,0
2017-06-22T01:53:03.123Z,0
2017-06-22T01:53:51.109Z,0
2017-06-22T01:54:38.735Z,0
2017-06-22T01:55:28.114Z,0
2017-06-22T01:56:15.925Z,0
2017-06-22T01:57:04.118Z,0
2017-06-22T01:57:51.861Z,0
2017-06-22T01:58:46.602Z,0
2017-06-22T01:59:34.852Z,0
2017-06-22T02:00:24.553Z,0
2017-06-22T02:01:13.500Z,0
2017-06-22T02:02:01.614Z,0
2017-06-22T02:02:50.577Z,0
2017-06-22T02:03:38.638Z,0
2017-06-22T02:04:26.735Z,0
2017-06-22T02:05:15.442Z,0
2017-06-22T02:06:03.625Z,0
2017-06-22T02:06:51.882Z,0
2017-06-22T02:07:40.761Z,0
2017-06-22T02:08:30.170Z,0
2017-06-22T02:09:23.935Z,0
2017-06-22T02:10:25.036Z,0
2017-06-22T02:11:19.177Z,0
2017-06-22T02:12:19.206Z,0
2017-06-22T02:13:14.086Z,0
2017-06-22T02:14:08.728Z,0
2017-06-22T02:15:09.128Z,0
2017-06-22T02:16:04.267Z,0
2017-06-22T02:16:59.433Z,0
2017-06-22T02:17:59.238Z,0
2017-06-22T02:18:54.352Z,4
2017-06-22T02:19:49.339Z,4
2017-06-22T02:20:55.352Z,4
2017-06-22T02:21:49.490Z,0
2017-06-22T02:22:49.512Z,0
2017-06-22T02:23:44.548Z,4
2017-06-22T02:24:50.018Z,4
2017-06-22T02:25:45.370Z,4
2017-06-22T02:26:39.176Z,4
2017-06-22T02:27:39.425Z,4
2017-06-22T02:28:39.527Z,8
2017-06-22T02:29:39.363Z,4
2017-06-22T02:30:40.242Z,8
2017-06-22T02:31:41.298Z,8
2017-06-22T02:32:35.348Z,8
2017-06-22T02:33:36.176Z,8
2017-06-22T02:34:30.414Z,12
2017-06-22T02:35:25.470Z,12
2017-06-22T02:36:26.810Z,12
2017-06-22T02:37:27.533Z,16
2017-06-22T02:38:27.538Z,16
2017-06-22T02:39:28.657Z,20
2017-06-22T02:40:29.844Z,24
2017-06-22T02:41:23.831Z,24
2017-06-22T02:42:23.723Z,28
2017-06-22T02:43:18.984Z,32
2017-06-22T02:44:14.091Z,32
2017-06-22T02:45:20.427Z,40
2017-06-22T02:46:13.830Z,40
2017-06-22T02:47:13.923Z,48
2017-06-22T02:48:09.524Z,52
2017-06-22T02:49:04.153Z,60
2017-06-22T02:50:04.391Z,64
2017-06-22T02:50:59.458Z,72
2017-06-22T02:51:54.147Z,80
2017-06-22T02:52:54.494Z,88
2017-06-22T02:53:49.843Z,96
2017-06-22T02:54:44.247Z,104
2017-06-22T02:55:44.609Z,112
2017-06-22T02:56:39.344Z,124
2017-06-22T02:57:34.576Z,132
2017-06-22T02:58:28.347Z,148
2017-06-22T02:59:28.463Z,160
2017-06-22T03:00:23.802Z,172
2017-06-22T03:01:23.455Z,188
2017-06-22T03:02:24.545Z,200
2017-06-22T03:03:18.792Z,216
2017-06-22T03:04:19.594Z,236
2017-06-22T03:05:21.105Z,256
2017-06-22T03:06:20.944Z,276
2017-06-22T03:07:16.274Z,292
2017-06-22T03:08:11.254Z,312
2017-06-22T03:09:11.207Z,336
2017-06-22T03:10:06.332Z,356
2017-06-22T03:11:06.289Z,380
2017-06-22T03:12:07.210Z,404
2017-06-22T03:13:07.742Z,428
2017-06-22T03:14:02.444Z,452
2017-06-22T03:15:02.223Z,476
2017-06-22T03:15:57.489Z,504
2017-06-22T03:16:52.272Z,528
2017-06-22T03:17:46.137Z,560
2017-06-22T03:18:47.156Z,612
2017-06-22T03:19:41.322Z,656
2017-06-22T03:20:29.613Z,700
2017-06-22T03:21:29.950Z,748
2017-06-22T03:22:24.694Z,800
2017-06-22T03:23:24.666Z,848
2017-06-22T03:24:25.635Z,896
2017-06-22T03:25:25.958Z,952
2017-06-22T03:26:25.740Z,1016
2017-06-22T03:27:26.117Z,1092
2017-06-22T03:28:25.589Z,1156
2017-06-22T03:29:26.120Z,1216
2017-06-22T03:30:26.256Z,1300
2017-06-22T03:31:27.105Z,1404
2017-06-22T03:32:26.176Z,1500
2017-06-22T03:33:26.385Z,1532
2017-06-22T03:34:26.194Z,1684
2017-06-22T03:35:26.269Z,1772
2017-06-22T03:36:26.329Z,1860
2017-06-22T03:37:26.371Z,1948
2017-06-22T03:38:26.549Z,2028
2017-06-22T03:39:26.437Z,2100
2017-06-22T03:40:26.524Z,2176
2017-06-22T03:41:26.705Z,2244
2017-06-22T03:42:26.540Z,2320
2017-06-22T03:43:26.547Z,2400
2017-06-22T03:44:26.643Z,2480
2017-06-22T03:45:26.618Z,2568
2017-06-22T03:46:26.684Z,2672
2017-06-22T03:47:26.750Z,2780
2017-06-22T03:48:26.831Z,2904
2017-06-22T03:49:26.703Z,3012
2017-06-22T03:50:26.838Z,3124
2017-06-22T03:51:26.921Z,3240
2017-06-22T03:52:26.912Z,3364
2017-06-22T03:53:26.998Z,3504
2017-06-22T03:54:27.002Z,3644
2017-06-22T03:55:26.983Z,3796
2017-06-22T03:56:27.558Z,3928
2017-06-22T03:57:27.124Z,4052
2017-06-22T03:58:27.196Z,4160
2017-06-22T03:59:27.257Z,4256
2017-06-22T04:00:27.200Z,4324
2017-06-22T04:01:27.340Z,4376
2017-06-22T04:02:27.338Z,4420
2017-06-22T04:03:27.319Z,4488
2017-06-22T04:04:27.450Z,4560
2017-06-22T04:05:27.819Z,4604
2017-06-22T04:06:33.434Z,4608
2017-06-22T04:07:28.526Z,4572
2017-06-22T04:08:22.478Z,4544
2017-06-22T04:09:22.529Z,4552
2017-06-22T04:10:17.603Z,4336
2017-06-22T04:11:12.650Z,4660
2017-06-22T04:12:12.725Z,4712
2017-06-22T04:13:07.811Z,4724
2017-06-22T04:14:03.026Z,4712
2017-06-22T04:14:56.987Z,4728
2017-06-22T04:16:03.031Z,4732
2017-06-22T04:16:56.915Z,4752
2017-06-22T04:17:57.936Z,4792
2017-06-22T04:18:52.988Z,4836
2017-06-22T04:19:54.033Z,4876
2017-06-22T04:20:48.101Z,4896
2017-06-22T04:21:48.113Z,4944
2017-06-22T04:22:43.171Z,4972
2017-06-22T04:23:38.206Z,4928
2017-06-22T04:24:38.196Z,4876
2017-06-22T04:25:33.272Z,4860
2017-06-22T04:26:28.340Z,4884
2017-06-22T04:27:22.324Z,4984
2017-06-22T04:28:23.419Z,5228
2017-06-22T04:29:18.425Z,5464
2017-06-22T04:30:18.476Z,5760
2017-06-22T04:31:18.553Z,6188
2017-06-22T04:32:18.569Z,6720
2017-06-22T04:33:18.640Z,7488
2017-06-22T04:34:18.650Z,8240
2017-06-22T04:35:18.675Z,8928
2017-06-22T04:36:18.768Z,9688
2017-06-22T04:37:18.792Z,10188
2017-06-22T04:38:18.875Z,10648
2017-06-22T04:39:26.543Z,10424
2017-06-22T04:40:24.909Z,10188
2017-06-22T04:41:25.962Z,9956
2017-06-22T04:42:26.967Z,10004
2017-06-22T04:43:27.993Z,10804
2017-06-22T04:44:22.026Z,11584
2017-06-22T04:45:22.098Z,10892
2017-06-22T04:46:17.127Z,11124
2017-06-22T04:47:12.207Z,10656
2017-06-22T04:48:06.314Z,11128
2017-06-22T04:49:07.264Z,12180
2017-06-22T04:50:08.289Z,12840
2017-06-22T04:51:08.364Z,14304
2017-06-22T04:52:08.442Z,14976
2017-06-22T04:53:03.465Z,16064
2017-06-22T04:54:03.518Z,17344
2017-06-22T04:55:03.514Z,18112
2017-06-22T04:56:03.572Z,18272
2017-06-22T04:57:03.760Z,18400
2017-06-22T04:58:03.672Z,18592
2017-06-22T04:59:03.713Z,18560
2017-06-22T05:00:03.855Z,17888
2017-06-22T05:01:03.785Z,17312
2017-06-22T05:02:03.854Z,16832
2017-06-22T05:03:09.974Z,15072
2017-06-22T05:04:04.930Z,13688
2017-06-22T05:04:59.020Z,11296
2017-06-22T05:06:00.084Z,10180
2017-06-22T05:07:01.025Z,9548
2017-06-22T05:08:01.071Z,9584
2017-06-22T05:09:01.164Z,9568
2017-06-22T05:09:56.227Z,9300
2017-06-22T05:10:56.242Z,8832
2017-06-22T05:11:56.275Z,8620
2017-06-22T05:12:56.293Z,9240
2017-06-22T05:13:56.421Z,10288
2017-06-22T05:14:56.580Z,11520
2017-06-22T05:15:56.376Z,12288
2017-06-22T05:16:56.502Z,13240
2017-06-22T05:17:56.524Z,14396
2017-06-22T05:18:56.629Z,15608
2017-06-22T05:19:56.613Z,16428
2017-06-22T05:20:56.684Z,16412
2017-06-22T05:21:56.707Z,15700
2017-06-22T05:22:56.793Z,16352
2017-06-22T05:23:56.829Z,17088
2017-06-22T05:24:56.834Z,18208
2017-06-22T05:25:56.908Z,19776
2017-06-22T05:26:56.941Z,17792
2017-06-22T05:27:57.017Z,17632
2017-06-22T05:28:57.052Z,19616
2017-06-22T05:30:03.041Z,20224
2017-06-22T05:30:58.155Z,21792
2017-06-22T05:31:58.246Z,23264
2017-06-22T05:32:58.204Z,23008
2017-06-22T05:33:58.249Z,21344
2017-06-22T05:34:58.331Z,21408
2017-06-22T05:35:58.389Z,22112
2017-06-22T05:36:58.580Z,24672
2017-06-22T05:37:58.467Z,24960
2017-06-22T05:38:59.541Z,23616
2017-06-22T05:39:54.574Z,22016
2017-06-22T05:40:49.702Z,20320
2017-06-22T05:41:49.749Z,19584
2017-06-22T05:42:44.761Z,20192
2017-06-22T05:43:38.852Z,20672
2017-06-22T05:44:32.942Z,21120
2017-06-22T05:45:22.064Z,20672
2017-06-22T05:46:11.110Z,20416
2017-06-22T05:47:05.187Z,20096
2017-06-22T05:47:59.219Z,19648
2017-06-22T05:48:47.310Z,19168
2017-06-22T05:49:41.417Z,18592
2017-06-22T05:50:30.453Z,19168
2017-06-22T05:51:24.565Z,19648
2017-06-22T05:52:12.621Z,20544
2017-06-22T05:53:00.679Z,21440
2017-06-22T05:53:54.936Z,22272
2017-06-22T05:54:54.834Z,21888
2017-06-22T05:55:49.950Z,20704
2017-06-22T05:56:50.008Z,20672
2017-06-22T05:57:51.065Z,21952
2017-06-22T05:58:46.089Z,24064
2017-06-22T05:59:41.226Z,26048
2017-06-22T06:00:35.423Z,26880
2017-06-22T06:01:29.461Z,26240
2017-06-22T06:02:18.416Z,25088
2017-06-22T06:03:06.613Z,23392
2017-06-22T06:04:01.597Z,22336
2017-06-22T06:05:01.716Z,22208
2017-06-22T06:05:55.769Z,22624
2017-06-22T06:06:50.821Z,23200
2017-06-22T06:07:50.851Z,22784
2017-06-22T06:08:51.020Z,23808
2017-06-22T06:09:45.060Z,25408
2017-06-22T06:10:40.092Z,26848
2017-06-22T06:11:40.264Z,27488
2017-06-22T06:12:34.325Z,27200
2017-06-22T06:13:28.654Z,26944
2017-06-22T06:14:17.398Z,26688
2017-06-22T06:15:12.527Z,26592
2017-06-22T06:16:06.603Z,26624
2017-06-22T06:16:54.716Z,26752
2017-06-22T06:17:43.806Z,27584
2017-06-22T06:18:38.844Z,27840
2017-06-22T06:19:33.005Z,29024
2017-06-22T06:20:26.994Z,29824
2017-06-22T06:21:27.200Z,30176
2017-06-22T06:22:22.120Z,31200
2017-06-22T06:23:17.200Z,32992
2017-06-22T06:24:11.333Z,33760
2017-06-22T06:25:05.350Z,34496
2017-06-22T06:25:59.557Z,34624
2017-06-22T06:26:53.481Z,33792
2017-06-22T06:27:48.658Z,33056
2017-06-22T06:28:37.730Z,33088
2017-06-22T06:29:31.821Z,34400
2017-06-22T06:30:25.833Z,36736
2017-06-22T06:31:20.542Z,39712
2017-06-22T06:32:09.653Z,41888
2017-06-22T06:33:05.254Z,43168
2017-06-22T06:34:00.187Z,44096
2017-06-22T06:35:00.286Z,43744
2017-06-22T06:36:01.433Z,42048
2017-06-22T06:36:56.421Z,41280
2017-06-22T06:37:50.540Z,38816
2017-06-22T06:38:38.463Z,38592
2017-06-22T06:39:32.475Z,38816
2017-06-22T06:40:32.823Z,40672
2017-06-22T06:41:32.758Z,43520
2017-06-22T06:42:38.636Z,44992
2017-06-22T06:43:32.731Z,44992
2017-06-22T06:44:27.229Z,44256
2017-06-22T06:45:16.044Z,42656
2017-06-22T06:46:03.995Z,41152
2017-06-22T06:46:52.301Z,40384
2017-06-22T06:47:47.350Z,41952
2017-06-22T06:48:42.520Z,45216
2017-06-22T06:49:36.221Z,48448
2017-06-22T06:50:31.176Z,52480
2017-06-22T06:51:24.776Z,53600
2017-06-22T06:52:19.901Z,51968
2017-06-22T06:53:14.130Z,51136
2017-06-22T06:54:08.069Z,45536
2017-06-22T06:55:01.971Z,42592
2017-06-22T06:56:02.152Z,44480
2017-06-22T06:56:56.276Z,46624
2017-06-22T06:57:49.969Z,48640
2017-06-22T06:58:44.302Z,51168
2017-06-22T06:59:38.323Z,52288
2017-06-22T07:00:33.544Z,53152
2017-06-22T07:01:27.632Z,52448
2017-06-22T07:02:21.208Z,52128
2017-06-22T07:03:15.731Z,51840
2017-06-22T07:04:15.571Z,51776
2017-06-22T07:05:16.654Z,49920
2017-06-22T07:06:10.702Z,50752
2017-06-22T07:07:04.959Z,53504
2017-06-22T07:08:05.291Z,55872
2017-06-22T07:09:00.510Z,56000
2017-06-22T07:09:49.476Z,56512
2017-06-22T07:10:43.461Z,54400
2017-06-22T07:11:32.572Z,54624
2017-06-22T07:12:20.655Z,55360
2017-06-22T07:13:14.944Z,57472
2017-06-22T07:14:08.832Z,58208
2017-06-22T07:15:02.896Z,55680
2017-06-22T07:15:57.009Z,57120
2017-06-22T07:16:51.053Z,57504
2017-06-22T07:17:45.091Z,55488
2017-06-22T07:18:45.245Z,56672
2017-06-22T07:19:34.368Z,58080
2017-06-22T07:20:28.427Z,60832
2017-06-22T07:21:23.530Z,63680
2017-06-22T07:22:23.544Z,65344
2017-06-22T07:23:12.764Z,66112
2017-06-22T07:24:00.746Z,64416
2017-06-22T07:24:54.845Z,62944
2017-06-22T07:25:42.909Z,60832
2017-06-22T07:26:42.941Z,58304
2017-06-22T07:27:49.062Z,55456
2017-06-22T07:28:44.150Z,53952
2017-06-22T07:29:38.260Z,56704
2017-06-22T07:30:32.547Z,61600
2017-06-22T07:31:26.398Z,67200
2017-06-22T07:32:21.450Z,68384
2017-06-22T07:33:15.769Z,67584
2017-06-22T07:34:15.657Z,67168
2017-06-22T07:35:10.774Z,61824
2017-06-22T07:36:06.082Z,60352
2017-06-22T07:36:59.882Z,62976
2017-06-22T07:37:54.960Z,64992
2017-06-22T07:38:44.068Z,53888
2017-06-22T07:39:39.136Z,64800
2017-06-22T07:40:34.226Z,65152
2017-06-22T07:41:22.891Z,52160
2017-06-22T07:42:22.399Z,32480
2017-06-22T07:43:10.512Z,32160
2017-06-22T07:44:05.612Z,33664
2017-06-22T07:44:59.629Z,51520
2017-06-22T07:45:53.707Z,36832
2017-06-22T07:46:53.834Z,55872
2017-06-22T07:47:54.888Z,35360
2017-06-22T07:48:54.976Z,33312
2017-06-22T07:49:55.027Z,43008
2017-06-22T07:51:01.143Z,67168
2017-06-22T07:51:55.209Z,63072
2017-06-22T07:52:43.264Z,37920
2017-06-22T07:53:31.405Z,63584
2017-06-22T07:54:31.487Z,61536
2017-06-22T07:55:25.559Z,54080
2017-06-22T07:56:19.603Z,61152
2017-06-22T07:57:13.785Z,68160
2017-06-22T07:58:13.919Z,70880
2017-06-22T07:59:02.695Z,62368
2017-06-22T07:59:51.753Z,53024
2017-06-22T08:00:46.999Z,58528
2017-06-22T08:01:36.056Z,50112
2017-06-22T08:02:42.156Z,67264
2017-06-22T08:03:36.301Z,65696
2017-06-22T08:04:30.443Z,61504
2017-06-22T08:05:18.540Z,67584
2017-06-22T08:06:07.587Z,74880
2017-06-22T08:06:56.683Z,78240
2017-06-22T08:07:51.780Z,80128
2017-06-22T08:08:51.958Z,76224
2017-06-22T08:09:51.630Z,41216
2017-06-22T08:10:40.929Z,57024
2017-06-22T08:11:42.121Z,30432
2017-06-22T08:12:36.340Z,28928
2017-06-22T08:13:30.059Z,30336
2017-06-22T08:14:30.259Z,31488
2017-06-22T08:15:31.267Z,32800
2017-06-22T08:16:25.126Z,68992
2017-06-22T08:17:25.066Z,67872
2017-06-22T08:18:19.672Z,79904
2017-06-22T08:19:09.030Z,79808
2017-06-22T08:20:08.838Z,78336
2017-06-22T08:21:08.882Z,80672
2017-06-22T08:22:09.028Z,80032
2017-06-22T08:22:57.008Z,78016
2017-06-22T08:23:46.095Z,75456
2017-06-22T08:24:40.214Z,72096
2017-06-22T08:25:34.320Z,66208
2017-06-22T08:26:29.447Z,63040
2017-06-22T08:27:23.846Z,59040
2017-06-22T08:28:18.547Z,57696
2017-06-22T08:29:13.681Z,59680
2017-06-22T08:30:13.717Z,66528
2017-06-22T08:31:02.847Z,76384
2017-06-22T08:31:51.887Z,84096
2017-06-22T08:32:46.001Z,90944
2017-06-22T08:33:41.101Z,94272
2017-06-22T08:34:30.227Z,94208
2017-06-22T08:35:24.297Z,91488
2017-06-22T08:36:19.374Z,86848
2017-06-22T08:37:13.409Z,83040
2017-06-22T08:38:07.561Z,79840
2017-06-22T08:38:56.649Z,76640
2017-06-22T08:39:50.788Z,75104
2017-06-22T08:40:38.767Z,76384
2017-06-22T08:41:26.892Z,74656
2017-06-22T08:42:14.988Z,74624
2017-06-22T08:43:03.061Z,75040
2017-06-22T08:43:51.150Z,75200
2017-06-22T08:44:45.298Z,77184
2017-06-22T08:45:39.355Z,79424
2017-06-22T08:46:33.463Z,81824
2017-06-22T08:47:22.508Z,84224
2017-06-22T08:48:22.620Z,87296
2017-06-22T08:49:17.704Z,90272
2017-06-22T08:50:17.784Z,91168
2017-06-22T08:51:12.983Z,92096
2017-06-22T08:52:07.958Z,90752
2017-06-22T08:53:02.038Z,88768
2017-06-22T08:53:51.194Z,87712
2017-06-22T08:54:40.221Z,85376
2017-06-22T08:55:35.370Z,84416
2017-06-22T08:56:35.406Z,81024
2017-06-22T08:57:30.458Z,78720
2017-06-22T08:58:24.563Z,75840
2017-06-22T08:59:24.647Z,77088
2017-06-22T09:00:24.744Z,81472
2017-06-22T09:01:13.863Z,84320
2017-06-22T09:02:01.987Z,85120
2017-06-22T09:02:57.142Z,84192
2017-06-22T09:03:51.118Z,85088
2017-06-22T09:04:39.385Z,83552
2017-06-22T09:05:33.494Z,82624
2017-06-22T09:06:28.422Z,80576
2017-06-22T09:07:17.643Z,82688
2017-06-22T09:08:11.580Z,81760
2017-06-22T09:09:05.895Z,82912
2017-06-22T09:10:00.054Z,84864
2017-06-22T09:10:54.828Z,83296
2017-06-22T09:11:48.970Z,85056
2017-06-22T09:12:38.017Z,82912
2017-06-22T09:13:32.064Z,79872
2017-06-22T09:14:27.651Z,77440
2017-06-22T09:15:22.336Z,78400
2017-06-22T09:16:16.369Z,78176
2017-06-22T09:17:11.511Z,78944
2017-06-22T09:18:05.601Z,76064
2017-06-22T09:18:59.685Z,79872
2017-06-22T09:19:48.092Z,80160
2017-06-22T09:20:42.851Z,78720
2017-06-22T09:21:36.992Z,76448
2017-06-22T09:22:31.227Z,73952
2017-06-22T09:23:26.214Z,74080
2017-06-22T09:24:15.250Z,74944
2017-06-22T09:25:10.324Z,74592
2017-06-22T09:26:10.396Z,75840
2017-06-22T09:26:59.476Z,77664
2017-06-22T09:27:54.570Z,78080
2017-06-22T09:28:49.701Z,78784
2017-06-22T09:29:38.814Z,83776
2017-06-22T09:30:32.863Z,85472
2017-06-22T09:31:28.399Z,80640
2017-06-22T09:32:16.002Z,84320
2017-06-22T09:33:10.126Z,87424
2017-06-22T09:34:04.245Z,92992
2017-06-22T09:34:58.383Z,94432
2017-06-22T09:35:52.387Z,91904
2017-06-22T09:36:46.529Z,87904
2017-06-22T09:37:35.810Z,86432
2017-06-22T09:38:30.618Z,80288
2017-06-22T09:39:30.792Z,80992
2017-06-22T09:40:24.842Z,77120
2017-06-22T09:41:20.024Z,79744
2017-06-22T09:42:08.061Z,81952
2017-06-22T09:42:56.191Z,80032
2017-06-22T09:43:50.259Z,76640
2017-06-22T09:44:45.317Z,74976
2017-06-22T09:45:34.455Z,74816
2017-06-22T09:46:28.503Z,73632
2017-06-22T09:47:22.566Z,74688
2017-06-22T09:48:22.705Z,76352
2017-06-22T09:49:10.745Z,77824
2017-06-22T09:49:58.845Z,79840
2017-06-22T09:50:58.968Z,81856
2017-06-22T09:52:05.022Z,81472
2017-06-22T09:53:05.120Z,80768
2017-06-22T09:54:00.214Z,81984
2017-06-22T09:55:00.275Z,83200
2017-06-22T09:55:54.356Z,83296
2017-06-22T09:56:54.505Z,85600
2017-06-22T09:57:48.611Z,86688
2017-06-22T09:58:42.677Z,86560
2017-06-22T09:59:37.764Z,86144
2017-06-22T10:00:26.849Z,85024
2017-06-22T10:01:15.942Z,90304
2017-06-22T10:02:09.982Z,94688
2017-06-22T10:03:05.072Z,46080
2017-06-22T10:03:53.343Z,93376
2017-06-22T10:04:42.342Z,70784
2017-06-22T10:05:31.411Z,87296
2017-06-22T10:06:20.478Z,45120
2017-06-22T10:07:09.584Z,87936
2017-06-22T10:08:04.711Z,84160
2017-06-22T10:08:53.712Z,85760
2017-06-22T10:09:59.826Z,84160
2017-06-22T10:10:53.939Z,83808
2017-06-22T10:11:48.079Z,84800
2017-06-22T10:12:42.302Z,80544
2017-06-22T10:13:36.159Z,81696
2017-06-22T10:14:36.293Z,81856
2017-06-22T10:15:30.427Z,81920
2017-06-22T10:16:25.534Z,82592
2017-06-22T10:17:25.532Z,81056
2017-06-22T10:18:25.632Z,80096
2017-06-22T10:19:25.788Z,76384
2017-06-22T10:20:19.848Z,75904
2017-06-22T10:21:13.930Z,74240
2017-06-22T10:22:08.053Z,76736
2017-06-22T10:22:56.082Z,81728
2017-06-22T10:23:51.154Z,76768
2017-06-22T10:24:40.342Z,73568
2017-06-22T10:25:40.337Z,75360
2017-06-22T10:26:29.466Z,74336
2017-06-22T10:27:17.554Z,72000
2017-06-22T10:28:11.621Z,74368
2017-06-22T10:29:00.727Z,73088
2017-06-22T10:29:54.745Z,71680
2017-06-22T10:30:49.903Z,76352
2017-06-22T10:31:44.011Z,81056
2017-06-22T10:32:33.089Z,81088
2017-06-22T10:33:27.206Z,83552
2017-06-22T10:34:21.244Z,83296
2017-06-22T10:35:15.289Z,85248
2017-06-22T10:36:04.442Z,83648
2017-06-22T10:36:53.542Z,85536
2017-06-22T10:37:48.636Z,72928
2017-06-22T10:38:48.912Z,72128
2017-06-22T10:39:43.779Z,71104
2017-06-22T10:40:37.918Z,65920
2017-06-22T10:41:31.980Z,71680
2017-06-22T10:42:27.024Z,60064
2017-06-22T10:43:22.108Z,57248
2017-06-22T10:44:16.261Z,75008
2017-06-22T10:45:10.347Z,72416
2017-06-22T10:46:10.405Z,74912
2017-06-22T10:47:11.515Z,59744
2017-06-22T10:48:11.653Z,50176
2017-06-22T10:49:05.752Z,48448
2017-06-22T10:49:59.763Z,53088
2017-06-22T10:50:59.856Z,56448
2017-06-22T10:51:48.973Z,56320
2017-06-22T10:52:43.066Z,70144
2017-06-22T10:53:32.131Z,74592
2017-06-22T10:54:26.217Z,79392
2017-06-22T10:55:21.295Z,73344
2017-06-22T10:56:21.398Z,68480
2017-06-22T10:57:21.458Z,71424
2017-06-22T10:58:15.612Z,73952
2017-06-22T10:59:10.650Z,77792
2017-06-22T11:00:04.754Z,78528
2017-06-22T11:00:59.818Z,79904
2017-06-22T11:01:53.928Z,68128
2017-06-22T11:02:49.194Z,68512
2017-06-22T11:03:43.128Z,75680
2017-06-22T11:04:37.176Z,77952
2017-06-22T11:05:25.286Z,77984
2017-06-22T11:06:25.355Z,79136
2017-06-22T11:07:20.429Z,82016
2017-06-22T11:08:14.574Z,74432
2017-06-22T11:09:02.637Z,74592
2017-06-22T11:09:56.752Z,76832
2017-06-22T11:10:50.774Z,78784
2017-06-22T11:11:50.940Z,73568
2017-06-22T11:12:50.968Z,72416
2017-06-22T11:13:39.138Z,73344
2017-06-22T11:14:33.200Z,68544
2017-06-22T11:15:27.318Z,72096
2017-06-22T11:16:27.389Z,65216
2017-06-22T11:17:27.450Z,70592
2017-06-22T11:18:27.979Z,70624
2017-06-22T11:19:22.631Z,73248
2017-06-22T11:20:17.745Z,71392
2017-06-22T11:21:05.818Z,69664
2017-06-22T11:21:59.946Z,66976
2017-06-22T11:22:59.993Z,68320
2017-06-22T11:23:55.090Z,64416
2017-06-22T11:24:49.143Z,65504
2017-06-22T11:25:37.227Z,63616
2017-06-22T11:26:32.368Z,66016
2017-06-22T11:27:20.483Z,61600
2017-06-22T11:28:14.527Z,64288
2017-06-22T11:29:02.695Z,64288
2017-06-22T11:29:56.669Z,65344
2017-06-22T11:30:50.735Z,65888
2017-06-22T11:31:44.830Z,62048
2017-06-22T11:32:33.938Z,66592
2017-06-22T11:33:28.033Z,66208
2017-06-22T11:34:28.359Z,74816
2017-06-22T11:35:28.180Z,80544
2017-06-22T11:36:28.226Z,79296
2017-06-22T11:37:22.374Z,73696
2017-06-22T11:38:16.494Z,66400
2017-06-22T11:39:10.525Z,70784
2017-06-22T11:40:04.603Z,68544
2017-06-22T11:40:58.722Z,73376
2017-06-22T11:41:47.797Z,75744
2017-06-22T11:42:36.888Z,76512
2017-06-22T11:43:25.963Z,73504
2017-06-22T11:44:21.019Z,81920
2017-06-22T11:45:09.153Z,39936
2017-06-22T11:45:58.244Z,76352
2017-06-22T11:46:47.324Z,77152
2017-06-22T11:47:41.429Z,74560
2017-06-22T11:48:35.586Z,73696
2017-06-22T11:49:29.569Z,75136
2017-06-22T11:50:23.747Z,77888
2017-06-22T11:51:11.770Z,75488
2017-06-22T11:52:05.888Z,77440
2017-06-22T11:52:59.929Z,78816
2017-06-22T11:53:54.033Z,110688
2017-06-22T11:54:49.127Z,81152
2017-06-22T11:55:38.253Z,82048
2017-06-22T11:56:32.344Z,80928
2017-06-22T11:57:21.405Z,80704
2017-06-22T11:58:15.604Z,80800
2017-06-22T11:59:09.619Z,74816
2017-06-22T11:59:57.661Z,81568
2017-06-22T12:00:51.860Z,83040
2017-06-22T12:01:40.889Z,81344
2017-06-22T12:02:29.925Z,31616
2017-06-22T12:03:25.068Z,78464
2017-06-22T12:04:19.108Z,74496
2017-06-22T12:05:19.173Z,72352
2017-06-22T12:06:14.326Z,71872
2017-06-22T12:07:14.311Z,72512
2017-06-22T12:08:09.495Z,74848
2017-06-22T12:09:04.543Z,63360
2017-06-22T12:09:53.689Z,75680